createdAt,value
2022-08-07T00:00:18.712Z,13.24
2022-08-07T00:02:35.390Z,13.23
2022-08-07T00:02:36.031Z,13.21
2022-08-07T00:03:17.984Z,13.19
2022-08-07T00:04:17.134Z,13.17
2022-08-07T00:05:18.334Z,13.15
2022-08-07T00:06:17.386Z,13.14
2022-08-07T00:07:17.657Z,13.13
2022-08-07T00:08:17.627Z,13.11
2022-08-07T00:09:22.375Z,13.10
2022-08-07T00:10:27.068Z,13.09
2022-08-07T00:11:19.912Z,13.07
2022-08-07T00:12:19.398Z,13.06
2022-08-07T00:13:24.003Z,13.04
2022-08-07T00:14:19.284Z,13.03
2022-08-07T00:15:19.414Z,13.01
2022-08-07T00:16:21.591Z,13.00
2022-08-07T00:17:19.746Z,12.99
2022-08-07T00:18:20.354Z,12.98
2022-08-07T00:19:21.602Z,12.97
2022-08-07T00:20:29.776Z,12.96
2022-08-07T00:21:20.125Z,12.94
2022-08-07T00:22:24.860Z,12.92
2022-08-07T00:23:21.154Z,12.90
2022-08-07T00:24:19.523Z,12.88
2022-08-07T00:25:19.620Z,12.87
2022-08-07T00:26:49.454Z,12.86
2022-08-07T00:27:20.830Z,12.84
2022-08-07T00:28:22.080Z,12.82
2022-08-07T00:29:20.112Z,12.81
2022-08-07T00:30:21.606Z,12.80
2022-08-07T00:31:21.349Z,12.79
2022-08-07T00:32:28.345Z,12.80
2022-08-07T00:33:21.772Z,12.82
2022-08-07T00:34:21.714Z,12.84
2022-08-07T00:35:20.848Z,12.86
2022-08-07T00:36:20.989Z,12.87
2022-08-07T00:37:21.087Z,12.88
2022-08-07T00:38:31.219Z,12.87
2022-08-07T00:39:22.518Z,12.86
2022-08-07T00:40:39.077Z,12.83
2022-08-07T00:41:22.568Z,12.78
2022-08-07T00:42:28.973Z,12.71
2022-08-07T00:43:59.033Z,12.63
2022-08-07T00:44:23.046Z,12.56
2022-08-07T00:45:22.026Z,12.50
2022-08-07T00:46:22.430Z,12.46
2022-08-07T00:48:07.993Z,12.43
2022-08-07T00:48:25.075Z,12.42
2022-08-07T00:49:24.853Z,12.40
2022-08-07T00:50:46.190Z,12.39
2022-08-07T00:51:23.757Z,12.38
2022-08-07T00:52:22.896Z,12.37
2022-08-07T00:53:22.984Z,12.37
2022-08-07T00:54:23.216Z,12.36
2022-08-07T00:55:25.486Z,12.35
2022-08-07T00:56:30.238Z,12.34
2022-08-07T00:57:25.740Z,12.32
2022-08-07T00:58:23.570Z,12.31
2022-08-07T00:59:32.710Z,12.30
2022-08-07T01:00:24.855Z,12.28
2022-08-07T01:01:24.094Z,12.27
2022-08-07T01:02:28.931Z,12.26
2022-08-07T01:03:56.313Z,12.25
2022-08-07T01:04:25.347Z,12.24
2022-08-07T01:05:24.536Z,12.23
2022-08-07T01:06:24.693Z,12.22
2022-08-07T01:07:24.633Z,12.20
2022-08-07T01:08:24.759Z,12.16
2022-08-07T01:10:04.539Z,12.11
2022-08-07T01:10:26.002Z,12.05
2022-08-07T01:12:23.647Z,11.99
2022-08-07T01:12:29.721Z,11.95
2022-08-07T01:13:25.371Z,11.91
2022-08-07T01:14:28.602Z,11.89
2022-08-07T01:15:35.805Z,11.88
2022-08-07T01:16:30.230Z,11.87
2022-08-07T01:17:26.186Z,11.87
2022-08-07T01:18:26.003Z,11.88
2022-08-07T01:19:26.139Z,11.89
2022-08-07T01:20:28.299Z,11.90
2022-08-07T01:21:26.409Z,11.91
2022-08-07T01:22:29.530Z,11.90
2022-08-07T01:23:37.949Z,11.90
2022-08-07T01:24:27.758Z,11.89
2022-08-07T01:25:54.727Z,11.89
2022-08-07T01:26:28.039Z,11.88
2022-08-07T01:27:31.981Z,11.87
2022-08-07T01:28:28.238Z,11.87
2022-08-07T01:29:27.686Z,11.86
2022-08-07T01:30:27.567Z,11.86
2022-08-07T01:31:27.618Z,11.86
2022-08-07T01:32:28.846Z,11.86
2022-08-07T01:33:30.124Z,11.84
2022-08-07T01:34:30.839Z,11.83
2022-08-07T01:35:52.955Z,11.82
2022-08-07T01:36:33.292Z,11.81
2022-08-07T01:37:29.409Z,11.79
2022-08-07T01:38:29.495Z,11.77
2022-08-07T01:39:41.101Z,11.75
2022-08-07T01:40:29.717Z,11.73
2022-08-07T01:41:28.845Z,11.72
2022-08-07T01:42:40.292Z,11.71
2022-08-07T01:43:34.708Z,11.70
2022-08-07T01:44:30.224Z,11.69
2022-08-07T01:45:36.427Z,11.69
2022-08-07T01:46:31.165Z,11.68
2022-08-07T01:48:20.253Z,11.67
2022-08-07T01:48:31.004Z,11.66
2022-08-07T01:49:31.866Z,11.65
2022-08-07T01:50:29.953Z,11.63
2022-08-07T01:52:04.020Z,11.62
2022-08-07T01:52:31.172Z,11.61
2022-08-07T01:54:12.063Z,11.59
2022-08-07T01:54:36.576Z,11.56
2022-08-07T01:55:33.628Z,11.53
2022-08-07T01:56:30.692Z,11.49
2022-08-07T01:57:30.834Z,11.47
2022-08-07T01:58:33.397Z,11.45
2022-08-07T01:59:31.574Z,11.44
2022-08-07T02:00:31.153Z,11.43
2022-08-07T02:02:02.779Z,11.42
2022-08-07T02:03:19.177Z,11.39
2022-08-07T02:03:48.713Z,11.36
2022-08-07T02:04:32.819Z,11.32
2022-08-07T02:05:47.877Z,11.30
2022-08-07T02:06:32.915Z,11.27
2022-08-07T02:07:36.166Z,11.25
2022-08-07T02:08:33.129Z,11.24
2022-08-07T02:09:33.809Z,11.24
2022-08-07T02:10:33.405Z,11.23
2022-08-07T02:12:04.170Z,11.22
2022-08-07T02:12:33.668Z,11.22
2022-08-07T02:13:56.738Z,11.21
2022-08-07T02:14:36.291Z,11.21
2022-08-07T02:15:34.217Z,11.19
2022-08-07T02:16:33.875Z,11.19
2022-08-07T02:17:34.363Z,11.19
2022-08-07T02:18:33.400Z,11.19
2022-08-07T02:20:04.718Z,11.18
2022-08-07T02:20:34.743Z,11.17
2022-08-07T02:21:55.222Z,11.14
2022-08-07T02:22:34.874Z,11.11
2022-08-07T02:23:35.841Z,11.08
2022-08-07T02:24:34.075Z,11.06
2022-08-07T02:26:30.635Z,11.04
2022-08-07T02:26:35.325Z,11.04
2022-08-07T02:27:34.998Z,11.03
2022-08-07T02:28:34.549Z,11.03
2022-08-07T02:29:36.837Z,11.03
2022-08-07T02:30:35.866Z,11.02
2022-08-07T02:31:34.918Z,11.02
2022-08-07T02:32:35.052Z,11.02
2022-08-07T02:33:57.133Z,11.01
2022-08-07T02:34:36.325Z,11.01
2022-08-07T02:36:29.364Z,10.99
2022-08-07T02:36:36.579Z,10.97
2022-08-07T02:37:36.023Z,10.96
2022-08-07T02:38:35.897Z,10.94
2022-08-07T02:39:43.906Z,10.91
2022-08-07T02:40:37.089Z,10.88
2022-08-07T02:41:37.148Z,10.83
2022-08-07T02:42:36.266Z,10.78
2022-08-07T02:43:39.458Z,10.73
2022-08-07T02:44:36.603Z,10.67
2022-08-07T02:46:00.401Z,10.61
2022-08-07T02:46:37.791Z,10.55
2022-08-07T02:47:48.888Z,10.49
2022-08-07T02:48:38.115Z,10.42
2022-08-07T02:49:58.349Z,10.34
2022-08-07T02:50:38.321Z,10.26
2022-08-07T02:51:42.785Z,10.19
2022-08-07T02:52:38.678Z,10.13
2022-08-07T02:53:38.740Z,10.08
2022-08-07T02:54:37.769Z,10.04
2022-08-07T02:56:02.266Z,10.02
2022-08-07T02:56:39.008Z,10.01
2022-08-07T02:57:38.141Z,10.00
2022-08-07T02:58:39.818Z,9.99
2022-08-07T02:59:39.420Z,9.99
2022-08-07T03:00:39.187Z,10.00
2022-08-07T03:01:40.053Z,10.02
2022-08-07T03:02:42.050Z,10.04
2022-08-07T03:03:49.227Z,10.04
2022-08-07T03:04:40.045Z,10.03
2022-08-07T03:05:39.196Z,10.01
2022-08-07T03:06:39.327Z,9.97
2022-08-07T03:08:04.633Z,9.94
2022-08-07T03:08:40.690Z,9.92
2022-08-07T03:09:43.455Z,9.92
2022-08-07T03:10:46.480Z,9.94
2022-08-07T03:11:52.429Z,9.96
2022-08-07T03:12:41.114Z,9.99
2022-08-07T03:13:49.398Z,10.01
2022-08-07T03:14:41.414Z,10.02
2022-08-07T03:15:55.573Z,10.01
2022-08-07T03:16:41.804Z,10.01
2022-08-07T03:17:53.015Z,10.01
2022-08-07T03:18:41.813Z,10.03
2022-08-07T03:19:41.023Z,10.05
2022-08-07T03:20:41.053Z,10.07
2022-08-07T03:21:41.183Z,10.10
2022-08-07T03:22:42.303Z,10.12
2022-08-07T03:24:20.299Z,10.14
2022-08-07T03:24:42.682Z,10.15
2022-08-07T03:25:41.834Z,10.15
2022-08-07T03:26:42.874Z,10.17
2022-08-07T03:28:08.781Z,10.17
2022-08-07T03:28:43.343Z,10.17
2022-08-07T03:29:44.598Z,10.17
2022-08-07T03:30:43.232Z,10.17
2022-08-07T03:31:46.211Z,10.17
2022-08-07T03:32:48.987Z,10.17
2022-08-07T03:33:43.610Z,10.16
2022-08-07T03:34:47.143Z,10.16
2022-08-07T03:35:50.691Z,10.16
2022-08-07T03:36:43.872Z,10.15
2022-08-07T03:37:46.554Z,10.14
2022-08-07T03:38:44.099Z,10.13
2022-08-07T03:39:58.895Z,10.13
2022-08-07T03:40:44.644Z,10.12
2022-08-07T03:41:47.696Z,10.11
2022-08-07T03:42:44.589Z,10.10
2022-08-07T03:43:44.039Z,10.09
2022-08-07T03:44:47.278Z,10.05
2022-08-07T03:45:48.628Z,10.00
2022-08-07T03:47:13.802Z,9.94
2022-08-07T03:47:51.170Z,9.89
2022-08-07T03:49:02.597Z,9.84
2022-08-07T03:49:47.757Z,9.81
2022-08-07T03:50:52.070Z,9.78
2022-08-07T03:51:47.297Z,9.75
2022-08-07T03:52:44.876Z,9.73
2022-08-07T03:54:01.859Z,9.72
2022-08-07T03:54:54.270Z,9.72
2022-08-07T03:55:58.365Z,9.73
2022-08-07T03:57:03.415Z,9.73
2022-08-07T03:58:34.691Z,9.74
2022-08-07T03:59:09.712Z,9.76
2022-08-07T04:00:01.837Z,9.77
2022-08-07T04:00:53.281Z,9.77
2022-08-07T04:01:47.054Z,9.77
2022-08-07T04:02:47.430Z,9.78
2022-08-07T04:03:49.635Z,9.78
2022-08-07T04:04:47.383Z,9.79
2022-08-07T04:05:46.513Z,9.79
2022-08-07T04:06:46.673Z,9.80
2022-08-07T04:07:47.621Z,9.80
2022-08-07T04:08:46.972Z,9.79
2022-08-07T04:09:50.470Z,9.78
2022-08-07T04:10:54.635Z,9.75
2022-08-07T04:12:23.872Z,9.72
2022-08-07T04:12:48.441Z,9.69
2022-08-07T04:14:11.026Z,9.66
2022-08-07T04:14:49.042Z,9.63
2022-08-07T04:15:49.084Z,9.62
2022-08-07T04:16:58.298Z,9.63
2022-08-07T04:18:31.043Z,9.63
2022-08-07T04:18:59.594Z,9.63
2022-08-07T04:19:52.939Z,9.63
2022-08-07T04:20:54.533Z,9.63
2022-08-07T04:21:59.064Z,9.64
2022-08-07T04:22:53.656Z,9.64
2022-08-07T04:24:07.573Z,9.64
2022-08-07T04:24:49.979Z,9.65
2022-08-07T04:25:49.090Z,9.65
2022-08-07T04:26:49.238Z,9.67
2022-08-07T04:28:00.243Z,9.68
2022-08-07T04:28:50.458Z,9.69
2022-08-07T04:30:02.446Z,9.70
2022-08-07T04:30:56.996Z,9.72
2022-08-07T04:32:09.825Z,9.73
2022-08-07T04:32:58.322Z,9.73
2022-08-07T04:33:55.092Z,9.74
2022-08-07T04:34:51.226Z,9.74
2022-08-07T04:35:51.195Z,9.74
2022-08-07T04:36:50.487Z,9.75
2022-08-07T04:38:02.960Z,9.76
2022-08-07T04:38:51.714Z,9.75
2022-08-07T04:39:50.910Z,9.73
2022-08-07T04:40:52.646Z,9.71
2022-08-07T04:41:51.113Z,9.69
2022-08-07T04:42:51.830Z,9.68
2022-08-07T04:44:13.003Z,9.67
2022-08-07T04:44:54.488Z,9.66
2022-08-07T04:46:01.523Z,9.66
2022-08-07T04:47:03.873Z,9.66
2022-08-07T04:47:57.357Z,9.66
2022-08-07T04:48:52.995Z,9.67
2022-08-07T04:49:57.922Z,9.68
2022-08-07T04:50:54.082Z,9.70
2022-08-07T04:51:52.359Z,9.72
2022-08-07T04:52:52.861Z,9.74
2022-08-07T04:54:05.547Z,9.76
2022-08-07T04:54:53.757Z,9.76
2022-08-07T04:58:12.971Z,9.74
2022-08-07T04:58:16.378Z,9.76
2022-08-07T04:58:24.426Z,9.75
2022-08-07T04:59:17.536Z,9.74
2022-08-07T05:00:11.066Z,9.75
2022-08-07T05:00:54.514Z,9.75
2022-08-07T05:01:53.638Z,9.77
2022-08-07T05:02:53.768Z,9.80
2022-08-07T05:04:06.816Z,9.83
2022-08-07T05:04:55.219Z,9.85
2022-08-07T05:05:57.528Z,9.88
2022-08-07T05:06:54.268Z,9.90
2022-08-07T05:07:54.406Z,9.94
2022-08-07T05:09:01.457Z,9.97
2022-08-07T05:09:55.736Z,10.00
2022-08-07T05:10:58.522Z,10.03
2022-08-07T05:11:57.510Z,10.06
2022-08-07T05:12:59.970Z,10.09
2022-08-07T05:14:52.729Z,10.11
2022-08-07T05:15:03.200Z,10.14
2022-08-07T05:15:56.394Z,10.16
2022-08-07T05:16:55.515Z,10.20
2022-08-07T05:17:55.889Z,10.24
2022-08-07T05:18:55.752Z,10.30
2022-08-07T05:19:55.844Z,10.36
2022-08-07T05:20:55.956Z,10.43
2022-08-07T05:22:00.169Z,10.50
2022-08-07T05:22:57.242Z,10.57
2022-08-07T05:23:56.243Z,10.64
2022-08-07T05:24:56.404Z,10.73
2022-08-07T05:26:13.519Z,10.82
2022-08-07T05:26:57.676Z,10.91
2022-08-07T05:28:16.140Z,11.00
2022-08-07T05:28:57.901Z,11.10
2022-08-07T05:29:57.051Z,11.20
2022-08-07T05:30:57.351Z,11.31
2022-08-07T05:31:57.357Z,11.43
2022-08-07T05:32:57.480Z,11.54
2022-08-07T05:34:04.348Z,11.65
2022-08-07T05:34:58.729Z,11.76
2022-08-07T05:35:57.878Z,11.87
2022-08-07T05:36:57.950Z,11.98
2022-08-07T05:38:09.001Z,12.08
2022-08-07T05:39:08.644Z,12.18
2022-08-07T05:40:13.759Z,12.26
2022-08-07T05:40:59.540Z,12.33
2022-08-07T05:42:02.533Z,12.42
2022-08-07T05:42:59.660Z,12.50
2022-08-07T05:44:12.411Z,12.59
2022-08-07T05:45:14.159Z,12.67
2022-08-07T05:46:00.167Z,12.74
2022-08-07T05:47:00.344Z,12.80
2022-08-07T05:48:02.419Z,12.83
2022-08-07T05:48:59.819Z,12.85
2022-08-07T05:49:59.518Z,12.88
2022-08-07T05:50:59.838Z,12.93
2022-08-07T05:51:59.908Z,13.01
2022-08-07T05:52:59.896Z,13.10
2022-08-07T05:54:09.410Z,13.21
2022-08-07T05:55:07.274Z,13.33
2022-08-07T05:56:03.636Z,13.44
2022-08-07T05:57:00.425Z,13.56
2022-08-07T05:58:00.514Z,13.68
2022-08-07T05:59:00.671Z,13.80
2022-08-07T06:00:01.418Z,13.93
2022-08-07T06:01:00.893Z,14.04
2022-08-07T06:02:01.158Z,14.15
2022-08-07T06:03:01.127Z,14.26
2022-08-07T06:04:01.585Z,14.36
2022-08-07T06:05:01.415Z,14.44
2022-08-07T06:06:01.564Z,14.51
2022-08-07T06:07:03.394Z,14.56
2022-08-07T06:08:30.396Z,14.61
2022-08-07T06:09:04.562Z,14.67
2022-08-07T06:10:05.637Z,14.72
2022-08-07T06:11:03.941Z,14.78
2022-08-07T06:12:02.473Z,14.84
2022-08-07T06:13:02.455Z,14.91
2022-08-07T06:14:11.446Z,14.96
2022-08-07T06:15:05.323Z,14.98
2022-08-07T06:16:02.792Z,15.00
2022-08-07T06:17:07.233Z,15.03
2022-08-07T06:18:03.002Z,15.07
2022-08-07T06:19:03.123Z,15.13
2022-08-07T06:20:03.919Z,15.18
2022-08-07T06:22:14.759Z,15.22
2022-08-07T06:22:17.020Z,15.25
2022-08-07T06:23:24.868Z,15.30
2022-08-07T06:24:52.778Z,15.35
2022-08-07T06:25:04.876Z,15.42
2022-08-07T06:26:03.950Z,15.50
2022-08-07T06:27:04.061Z,15.63
2022-08-07T06:28:04.535Z,15.77
2022-08-07T06:29:04.279Z,15.93
2022-08-07T06:30:04.430Z,16.10
2022-08-07T06:31:04.570Z,16.25
2022-08-07T06:32:04.718Z,16.37
2022-08-07T06:33:04.839Z,16.43
2022-08-07T06:34:06.006Z,16.43
2022-08-07T06:35:10.591Z,16.42
2022-08-07T06:36:13.799Z,16.45
2022-08-07T06:37:06.328Z,16.52
2022-08-07T06:38:05.466Z,16.64
2022-08-07T06:40:13.336Z,16.93
2022-08-07T06:40:15.989Z,16.78
2022-08-07T06:41:07.145Z,17.08
2022-08-07T06:42:06.043Z,17.22
2022-08-07T06:43:07.165Z,17.35
2022-08-07T06:44:11.021Z,17.45
2022-08-07T06:45:06.307Z,17.49
2022-08-07T06:46:12.213Z,17.51
2022-08-07T06:47:10.153Z,17.54
2022-08-07T06:48:07.668Z,17.62
2022-08-07T06:49:06.949Z,17.72
2022-08-07T06:50:06.948Z,17.84
2022-08-07T06:51:08.169Z,17.95
2022-08-07T06:52:07.589Z,18.06
2022-08-07T06:53:07.348Z,18.19
2022-08-07T06:55:28.866Z,18.31
2022-08-07T06:55:31.348Z,18.45
2022-08-07T06:56:15.214Z,18.59
2022-08-07T06:57:08.816Z,18.73
2022-08-07T06:58:10.320Z,18.87
2022-08-07T07:00:11.804Z,19.13
2022-08-07T07:00:11.805Z,19.01
2022-08-07T07:01:09.410Z,19.21
2022-08-07T07:02:08.572Z,19.25
2022-08-07T07:03:13.565Z,19.27
2022-08-07T07:04:32.975Z,19.31
2022-08-07T07:05:12.695Z,19.38
2022-08-07T07:06:11.293Z,19.47
2022-08-07T07:07:10.460Z,19.57
2022-08-07T07:08:12.646Z,19.63
2022-08-07T07:09:10.536Z,19.67
2022-08-07T07:10:10.529Z,19.72
2022-08-07T07:11:13.125Z,19.76
2022-08-07T07:12:16.682Z,19.77
2022-08-07T07:13:10.858Z,19.74
2022-08-07T07:14:10.094Z,19.68
2022-08-07T07:15:23.855Z,19.62
2022-08-07T07:16:11.213Z,19.58
2022-08-07T07:17:15.991Z,19.52
2022-08-07T07:18:11.478Z,19.48
2022-08-07T07:19:56.479Z,19.47
2022-08-07T07:20:11.916Z,19.47
2022-08-07T07:21:13.562Z,19.47
2022-08-07T07:22:35.894Z,19.45
2022-08-07T07:24:09.458Z,19.46
2022-08-07T07:24:12.967Z,19.54
2022-08-07T07:26:31.281Z,19.65
2022-08-07T07:26:35.787Z,19.76
2022-08-07T07:27:12.555Z,19.87
2022-08-07T07:28:42.358Z,20.00
2022-08-07T07:29:39.626Z,20.13
2022-08-07T07:30:12.933Z,20.26
2022-08-07T07:31:13.033Z,20.36
2022-08-07T07:32:12.147Z,20.41
2022-08-07T07:33:12.377Z,20.41
2022-08-07T07:34:12.434Z,20.38
2022-08-07T07:35:12.595Z,20.39
2022-08-07T07:36:13.538Z,20.45
2022-08-07T07:37:22.094Z,20.51
2022-08-07T07:38:13.992Z,20.52
2022-08-07T07:39:13.278Z,20.50
2022-08-07T07:40:14.795Z,20.54
2022-08-07T07:41:13.283Z,20.66
2022-08-07T07:42:19.705Z,20.82
2022-08-07T07:43:18.581Z,20.94
2022-08-07T07:44:21.387Z,21.00
2022-08-07T07:45:14.811Z,21.02
2022-08-07T07:46:38.505Z,21.02
2022-08-07T07:47:23.718Z,21.06
2022-08-07T07:48:34.779Z,21.16
2022-08-07T07:50:33.879Z,21.44
2022-08-07T07:50:34.945Z,21.29
2022-08-07T07:51:15.613Z,21.55
2022-08-07T07:52:15.813Z,21.62
2022-08-07T07:53:23.207Z,21.70
2022-08-07T07:54:16.572Z,21.82
2022-08-07T07:55:16.011Z,21.93
2022-08-07T07:56:15.092Z,22.01
2022-08-07T07:57:15.232Z,22.09
2022-08-07T07:58:15.421Z,22.20
2022-08-07T07:59:15.491Z,22.33
2022-08-07T08:00:29.904Z,22.46
2022-08-07T08:02:02.856Z,22.57
2022-08-07T08:02:34.102Z,22.67
2022-08-07T08:04:06.061Z,22.78
2022-08-07T08:04:17.127Z,22.88
2022-08-07T08:05:16.214Z,23.00
2022-08-07T08:06:16.356Z,23.14
2022-08-07T08:07:20.005Z,23.27
2022-08-07T08:08:35.555Z,23.36
2022-08-07T08:09:17.849Z,23.41
2022-08-07T08:10:35.733Z,23.45
2022-08-07T08:11:47.118Z,23.49
2022-08-07T08:12:42.941Z,23.53
2022-08-07T08:13:18.310Z,23.54
2022-08-07T08:14:21.418Z,23.54
2022-08-07T08:15:21.768Z,23.59
2022-08-07T08:16:18.106Z,23.68
2022-08-07T08:17:57.221Z,23.78
2022-08-07T08:18:19.177Z,23.89
2022-08-07T08:20:16.267Z,23.99
2022-08-07T08:20:26.281Z,24.01
2022-08-07T08:21:19.284Z,23.93
2022-08-07T08:22:18.390Z,23.86
2022-08-07T08:23:18.624Z,23.86
2022-08-07T08:24:45.707Z,23.84
2022-08-07T08:25:26.808Z,23.78
2022-08-07T08:26:19.830Z,23.76
2022-08-07T08:27:18.947Z,23.79
2022-08-07T08:28:24.062Z,23.87
2022-08-07T08:29:20.190Z,23.94
2022-08-07T08:30:19.766Z,24.00
2022-08-07T08:31:29.906Z,24.08
2022-08-07T08:32:25.171Z,24.19
2022-08-07T08:33:21.926Z,24.31
2022-08-07T08:34:27.191Z,24.41
2022-08-07T08:35:20.921Z,24.50
2022-08-07T08:36:25.406Z,24.53
2022-08-07T08:37:59.063Z,24.54
2022-08-07T08:38:21.470Z,24.58
2022-08-07T08:39:20.473Z,24.65
2022-08-07T08:40:23.378Z,24.71
2022-08-07T08:41:21.637Z,24.70
2022-08-07T08:42:20.788Z,24.58
2022-08-07T08:43:22.082Z,24.42
2022-08-07T08:44:29.309Z,24.23
2022-08-07T08:45:22.178Z,24.09
2022-08-07T08:46:21.956Z,24.07
2022-08-07T08:47:21.416Z,24.15
2022-08-07T08:48:21.599Z,24.30
2022-08-07T08:49:33.506Z,24.47
2022-08-07T08:50:35.285Z,24.54
2022-08-07T08:51:49.306Z,24.57
2022-08-07T08:52:23.007Z,24.64
2022-08-07T08:53:23.138Z,24.70
2022-08-07T08:54:22.376Z,24.73
2022-08-07T08:55:55.605Z,24.79
2022-08-07T08:56:24.691Z,24.91
2022-08-07T08:57:22.621Z,24.99
2022-08-07T08:58:28.359Z,24.97
2022-08-07T08:59:23.977Z,24.90
2022-08-07T09:00:22.976Z,24.85
2022-08-07T09:01:24.305Z,24.79
2022-08-07T09:02:36.785Z,24.64
2022-08-07T09:03:49.514Z,24.49
2022-08-07T09:04:26.130Z,24.46
2022-08-07T09:05:36.745Z,24.56
2022-08-07T09:06:24.745Z,24.72
2022-08-07T09:07:25.258Z,24.92
2022-08-07T09:08:28.353Z,25.11
2022-08-07T09:09:30.164Z,25.28
2022-08-07T09:10:25.273Z,25.41
2022-08-07T09:11:51.251Z,25.47
2022-08-07T09:12:31.025Z,25.52
2022-08-07T09:13:35.325Z,25.55
2022-08-07T09:14:27.485Z,25.50
2022-08-07T09:16:23.408Z,25.35
2022-08-07T09:16:30.170Z,25.20
2022-08-07T09:17:25.095Z,25.08
2022-08-07T09:18:26.218Z,25.00
2022-08-07T09:19:50.865Z,24.95
2022-08-07T09:20:35.971Z,24.90
2022-08-07T09:21:58.212Z,24.89
2022-08-07T09:24:28.040Z,24.86
2022-08-07T09:24:31.146Z,24.88
2022-08-07T09:24:33.073Z,24.84
2022-08-07T09:25:27.195Z,24.92
2022-08-07T09:26:26.253Z,24.96
2022-08-07T09:27:28.758Z,25.02
2022-08-07T09:30:05.475Z,25.17
2022-08-07T09:30:06.491Z,25.08
2022-08-07T09:30:28.046Z,25.31
2022-08-07T09:31:26.802Z,25.43
2022-08-07T09:32:27.902Z,25.53
2022-08-07T09:33:52.456Z,25.62
2022-08-07T09:34:28.140Z,25.68
2022-08-07T09:36:04.972Z,25.73
2022-08-07T09:36:31.197Z,25.75
2022-08-07T09:37:28.643Z,25.74
2022-08-07T09:38:28.651Z,25.74
2022-08-07T09:39:54.149Z,25.72
2022-08-07T09:40:28.937Z,25.67
2022-08-07T09:41:28.070Z,25.54
2022-08-07T09:42:33.249Z,25.43
2022-08-07T09:44:03.444Z,25.40
2022-08-07T09:44:58.427Z,25.43
2022-08-07T09:47:51.239Z,25.43
2022-08-07T09:47:52.328Z,25.47
2022-08-07T09:47:52.710Z,25.45
2022-08-07T09:48:50.026Z,25.44
2022-08-07T09:50:01.995Z,25.45
2022-08-07T09:50:30.320Z,25.46
2022-08-07T09:52:16.044Z,25.51
2022-08-07T09:52:34.111Z,25.55
2022-08-07T09:53:40.855Z,25.55
2022-08-07T09:54:30.568Z,25.57
2022-08-07T09:56:03.274Z,25.61
2022-08-07T09:56:37.151Z,25.61
2022-08-07T09:57:31.336Z,25.51
2022-08-07T09:58:32.511Z,25.41
2022-08-07T09:59:44.562Z,25.38
2022-08-07T10:00:32.020Z,25.30
2022-08-07T10:01:51.647Z,25.26
2022-08-07T10:02:31.673Z,25.34
2022-08-07T10:04:05.879Z,25.44
2022-08-07T10:04:33.082Z,25.51
2022-08-07T10:06:00.052Z,25.50
2022-08-07T10:06:32.071Z,25.47
2022-08-07T10:07:31.591Z,25.48
2022-08-07T10:08:32.229Z,25.53
2022-08-07T10:09:42.951Z,25.65
2022-08-07T10:10:53.761Z,25.80
2022-08-07T10:12:01.167Z,25.95
2022-08-07T10:12:32.665Z,26.05
2022-08-07T10:14:00.979Z,26.09
2022-08-07T10:14:32.905Z,26.12
2022-08-07T10:15:44.052Z,26.19
2022-08-07T10:16:33.275Z,26.28
2022-08-07T10:18:00.719Z,26.32
2022-08-07T10:18:33.365Z,26.32
2022-08-07T10:19:32.508Z,26.37
2022-08-07T10:20:33.609Z,26.44
2022-08-07T10:22:16.332Z,26.50
2022-08-07T10:22:36.761Z,26.53
2022-08-07T10:24:05.439Z,26.49
2022-08-07T10:24:39.680Z,26.41
2022-08-07T10:25:43.096Z,26.35
2022-08-07T10:26:34.361Z,26.36
2022-08-07T10:27:44.916Z,26.32
2022-08-07T10:28:34.601Z,26.26
2022-08-07T10:29:34.922Z,26.28
2022-08-07T10:30:33.904Z,26.28
2022-08-07T10:31:38.634Z,26.27
2022-08-07T10:32:50.960Z,26.31
2022-08-07T10:34:06.034Z,26.35
2022-08-07T10:34:35.390Z,26.37
2022-08-07T10:35:56.674Z,26.39
2022-08-07T10:36:36.141Z,26.42
2022-08-07T10:38:00.161Z,26.43
2022-08-07T10:38:48.117Z,26.44
2022-08-07T10:39:41.730Z,26.50
2022-08-07T10:40:36.042Z,26.61
2022-08-07T10:41:53.077Z,26.75
2022-08-07T10:42:37.043Z,26.88
2022-08-07T10:43:35.467Z,26.78
2022-08-07T10:44:38.411Z,26.62
2022-08-07T10:45:43.975Z,26.50
2022-08-07T10:46:36.879Z,26.39
2022-08-07T10:47:53.256Z,26.38
2022-08-07T10:48:37.159Z,26.44
2022-08-07T10:49:49.606Z,26.53
2022-08-07T10:50:37.335Z,26.49
2022-08-07T10:51:39.170Z,26.37
2022-08-07T10:52:36.606Z,26.17
2022-08-07T10:53:41.692Z,25.90
2022-08-07T10:54:37.857Z,25.77
2022-08-07T10:55:38.631Z,25.82
2022-08-07T10:56:37.105Z,25.95
2022-08-07T10:57:37.324Z,26.08
2022-08-07T10:58:40.473Z,26.13
2022-08-07T10:59:37.820Z,26.19
2022-08-07T11:00:43.117Z,26.28
2022-08-07T11:01:52.135Z,26.38
2022-08-07T11:02:40.114Z,26.47
2022-08-07T11:03:54.886Z,26.57
2022-08-07T11:04:39.113Z,26.67
2022-08-07T11:05:48.902Z,26.67
2022-08-07T11:06:39.343Z,26.61
2022-08-07T11:07:58.440Z,26.50
2022-08-07T11:08:39.562Z,26.36
2022-08-07T11:10:09.237Z,26.27
2022-08-07T11:10:39.821Z,26.30
2022-08-07T11:11:38.961Z,26.39
2022-08-07T11:12:39.141Z,26.41
2022-08-07T11:14:44.338Z,26.42
2022-08-07T11:14:45.030Z,26.46
2022-08-07T11:15:40.461Z,26.51
2022-08-07T11:16:39.621Z,26.53
2022-08-07T11:17:43.317Z,26.49
2022-08-07T11:18:41.190Z,26.48
2022-08-07T11:19:40.023Z,26.55
2022-08-07T11:20:40.530Z,26.66
2022-08-07T11:21:42.789Z,26.70
2022-08-07T11:22:45.995Z,26.71
2022-08-07T11:23:41.480Z,26.74
2022-08-07T11:24:45.657Z,26.71
2022-08-07T11:25:47.996Z,26.67
2022-08-07T11:26:48.003Z,26.62
2022-08-07T11:28:02.947Z,26.56
2022-08-07T11:28:42.439Z,26.50
2022-08-07T11:29:47.272Z,26.46
2022-08-07T11:30:42.501Z,26.45
2022-08-07T11:31:41.526Z,26.46
2022-08-07T11:32:41.735Z,26.49
2022-08-07T11:33:59.607Z,26.49
2022-08-07T11:34:42.933Z,26.52
2022-08-07T11:35:59.756Z,26.62
2022-08-07T11:36:43.133Z,26.71
2022-08-07T11:37:58.338Z,26.77
2022-08-07T11:38:43.357Z,26.84
2022-08-07T11:40:00.558Z,26.87
2022-08-07T11:40:45.291Z,26.88
2022-08-07T11:42:00.463Z,26.83
2022-08-07T11:42:43.876Z,26.73
2022-08-07T11:44:12.005Z,26.71
2022-08-07T11:44:52.676Z,26.80
2022-08-07T11:45:49.902Z,26.92
2022-08-07T11:46:44.326Z,27.06
2022-08-07T11:47:56.053Z,27.19
2022-08-07T11:49:04.170Z,27.30
2022-08-07T11:50:18.775Z,27.24
2022-08-07T11:50:57.371Z,27.13
2022-08-07T11:51:46.807Z,27.13
2022-08-07T11:52:44.083Z,27.21
2022-08-07T11:54:00.931Z,27.30
2022-08-07T11:54:53.060Z,27.35
2022-08-07T11:56:09.337Z,27.35
2022-08-07T11:56:45.573Z,27.36
2022-08-07T11:58:00.401Z,27.37
2022-08-07T11:58:45.854Z,27.28
2022-08-07T12:00:10.445Z,27.17
2022-08-07T12:00:48.915Z,27.14
2022-08-07T12:01:59.628Z,27.14
2022-08-07T12:02:52.721Z,27.11
2022-08-07T12:03:46.603Z,27.07
2022-08-07T12:04:45.779Z,27.01
2022-08-07T12:05:49.007Z,26.95
2022-08-07T12:06:56.312Z,26.85
2022-08-07T12:07:46.873Z,26.64
2022-08-07T12:08:46.994Z,26.44
2022-08-07T12:09:46.226Z,26.29
2022-08-07T12:10:46.220Z,26.21
2022-08-07T12:12:10.825Z,26.15
2022-08-07T12:12:47.475Z,26.18
2022-08-07T12:13:47.805Z,26.24
2022-08-07T12:14:51.501Z,26.17
2022-08-07T12:16:06.987Z,26.04
2022-08-07T12:16:48.080Z,25.92
2022-08-07T12:17:58.926Z,25.93
2022-08-07T12:18:48.177Z,26.08
2022-08-07T12:20:04.906Z,26.31
2022-08-07T12:20:49.275Z,26.41
2022-08-07T12:22:36.701Z,26.40
2022-08-07T12:22:56.313Z,26.42
2022-08-07T12:24:07.184Z,26.53
2022-08-07T12:25:02.027Z,26.68
2022-08-07T12:26:02.777Z,26.80
2022-08-07T12:26:49.585Z,26.82
2022-08-07T12:28:09.042Z,26.77
2022-08-07T12:28:49.874Z,26.80
2022-08-07T12:29:51.683Z,26.91
2022-08-07T12:30:48.715Z,27.07
2022-08-07T12:32:01.574Z,27.22
2022-08-07T12:32:50.118Z,27.29
2022-08-07T12:34:00.735Z,27.27
2022-08-07T12:34:55.752Z,27.20
2022-08-07T12:35:57.626Z,27.19
2022-08-07T12:36:50.447Z,27.26
2022-08-07T12:38:09.823Z,27.38
2022-08-07T12:38:57.566Z,27.51
2022-08-07T12:39:51.636Z,27.57
2022-08-07T12:40:50.364Z,27.57
2022-08-07T12:41:51.946Z,27.61
2022-08-07T12:42:52.752Z,27.69
2022-08-07T12:44:03.749Z,27.68
2022-08-07T12:44:51.455Z,27.49
2022-08-07T12:45:52.508Z,27.29
2022-08-07T12:46:50.805Z,27.21
2022-08-07T12:47:50.846Z,27.25
2022-08-07T12:48:53.051Z,27.37
2022-08-07T12:49:52.973Z,27.51
2022-08-07T12:50:51.112Z,27.55
2022-08-07T12:52:13.974Z,27.56
2022-08-07T12:52:53.087Z,27.61
2022-08-07T12:54:03.090Z,27.64
2022-08-07T12:54:54.658Z,27.65
2022-08-07T12:56:02.808Z,27.65
2022-08-07T12:56:55.009Z,27.66